createdAt,value
2018-01-15T01:03:25.704Z,8.30
2018-01-15T01:05:53.138Z,9.70
2018-01-15T01:08:21.327Z,14.87
2018-01-15T01:10:50.484Z,10.05
2018-01-15T03:09:07.204Z,8.18
2018-01-15T03:11:36.522Z,12.02
2018-01-15T03:14:05.885Z,6.97
2018-01-15T03:19:29.186Z,8.95
2018-01-15T03:21:56.664Z,14.25
2018-01-15T03:24:25.877Z,9.98
2018-01-15T03:44:23.014Z,8.75
2018-01-15T03:46:51.348Z,11.93
2018-01-15T03:49:21.196Z,13.15
2018-01-15T03:51:49.576Z,10.70
2018-01-15T03:54:19.357Z,10.80
2018-01-15T03:56:51.764Z,10.77
2018-01-15T03:59:19.499Z,12.15
2018-01-15T04:01:48.586Z,12.02
2018-01-15T04:04:16.063Z,11.93
2018-01-15T04:06:44.913Z,13.68
2018-01-15T04:09:12.747Z,12.02
2018-01-15T04:11:40.193Z,13.43
2018-01-15T04:19:38.954Z,17.30
2018-01-15T04:22:07.259Z,12.88
2018-01-15T04:24:36.721Z,13.85
2018-01-15T04:27:05.087Z,14.02
2018-01-15T04:29:32.548Z,8.57
2018-01-15T04:32:00.007Z,11.98
2018-01-15T04:34:28.950Z,10.30
2018-01-15T04:36:57.887Z,8.40
2018-01-15T04:39:27.442Z,12.82
2018-01-15T04:41:55.311Z,11.85
2018-01-15T04:44:23.890Z,13.65
2018-01-15T04:46:51.331Z,9.35
2018-01-15T04:49:18.783Z,14.23
2018-01-15T04:51:46.261Z,13.18
2018-01-15T04:54:13.717Z,9.50
2018-01-15T04:56:41.170Z,12.90
2018-01-15T04:59:12.849Z,13.18
2018-01-15T05:16:01.001Z,12.65
2018-01-15T05:18:28.454Z,12.05
2018-01-15T05:20:56.854Z,11.77
2018-01-15T05:23:24.309Z,14.45
2018-01-15T05:25:53.251Z,12.37
2018-01-15T05:28:20.702Z,12.93
2018-01-15T05:30:48.778Z,14.43
2018-01-15T05:33:16.198Z,12.70
2018-01-15T05:35:44.410Z,15.93
2018-01-15T05:38:11.869Z,10.07
2018-01-15T05:40:39.322Z,12.10
2018-01-15T05:43:06.790Z,14.73
2018-01-15T05:45:34.638Z,11.43
2018-01-15T05:48:02.074Z,9.80
2018-01-15T05:50:31.711Z,12.68
2018-01-15T05:52:59.993Z,11.55
2018-01-15T05:55:27.830Z,9.40
2018-01-15T05:57:56.902Z,13.45
2018-01-15T06:00:25.350Z,11.98
2018-01-15T06:02:53.662Z,13.70
2018-01-15T06:05:23.310Z,12.57
2018-01-15T06:07:55.281Z,13.07
2018-01-15T06:10:22.702Z,14.87
2018-01-15T06:12:52.118Z,11.32
2018-01-15T06:15:19.836Z,18.12
2018-01-15T06:17:47.662Z,13.00
2018-01-15T06:20:15.110Z,10.90
2018-01-15T06:22:43.278Z,17.62
2018-01-15T06:25:10.720Z,14.15
2018-01-15T06:27:38.926Z,16.83
2018-01-15T06:30:06.377Z,14.70
2018-01-15T06:32:34.631Z,12.20
2018-01-15T06:35:02.703Z,14.10
2018-01-15T06:37:30.162Z,14.95
2018-01-15T06:39:57.612Z,12.27
2018-01-15T06:42:25.719Z,15.90
2018-01-15T06:44:54.506Z,17.37
2018-01-15T06:47:28.724Z,17.17
2018-01-15T06:50:00.398Z,12.00
2018-01-15T06:52:27.849Z,10.45
2018-01-15T06:54:56.079Z,10.77
2018-01-15T06:57:24.243Z,15.50
2018-01-15T06:59:54.209Z,15.75
2018-01-15T07:02:44.930Z,12.63
2018-01-15T07:05:14.000Z,18.80
2018-01-15T07:07:44.279Z,18.62
2018-01-15T07:10:26.951Z,13.50
2018-01-15T07:13:09.184Z,16.62
2018-01-15T07:17:20.449Z,15.85
2018-01-15T07:41:16.486Z,7.68
2018-01-15T07:43:43.914Z,13.00
2018-01-15T07:46:11.366Z,16.62
2018-01-15T07:48:42.020Z,13.05
2018-01-15T07:51:11.171Z,16.42
2018-01-15T07:56:27.063Z,15.32
2018-01-15T07:58:56.188Z,16.70
2018-01-15T08:01:33.072Z,17.25
2018-01-15T08:04:00.552Z,16.98
2018-01-15T08:06:27.994Z,14.38
2018-01-15T08:08:55.450Z,18.48
2018-01-15T08:11:40.490Z,18.37
2018-01-15T08:14:08.341Z,18.23
2018-01-15T08:16:48.746Z,16.27
2018-01-15T08:19:18.790Z,18.33
2018-01-15T08:21:49.979Z,24.48
2018-01-15T08:24:47.495Z,20.88
2018-01-15T08:30:23.655Z,19.87
2018-01-15T09:12:20.396Z,21.50
2018-01-15T09:14:49.106Z,22.10
2018-01-15T09:17:18.335Z,23.20
2018-01-15T09:19:46.903Z,22.52
2018-01-15T09:22:16.818Z,23.33
2018-01-15T09:24:47.785Z,19.58
2018-01-15T09:27:15.851Z,17.90
2018-01-15T09:29:44.593Z,20.10
2018-01-15T09:32:12.014Z,18.95
2018-01-15T09:34:47.590Z,20.52
2018-01-15T09:48:52.703Z,20.30
2018-01-15T09:51:20.143Z,20.83
2018-01-15T09:53:51.816Z,19.30
2018-01-15T09:56:20.547Z,21.90
2018-01-15T09:58:49.126Z,22.05
2018-01-15T10:01:17.210Z,17.25
2018-01-15T10:06:20.586Z,23.62
2018-01-15T10:08:49.148Z,21.67
2018-01-15T10:11:21.645Z,21.77
2018-01-15T10:13:53.938Z,22.65
2018-01-15T10:16:23.228Z,21.60
2018-01-15T10:18:50.703Z,21.25
2018-01-15T10:21:20.715Z,22.15
2018-01-15T10:24:00.426Z,18.00
2018-01-15T10:26:27.876Z,19.80
2018-01-15T10:28:56.221Z,19.50
2018-01-15T10:31:51.999Z,24.83
2018-01-15T10:34:23.147Z,23.60
2018-01-15T10:36:56.802Z,20.23
2018-01-15T10:39:26.591Z,20.15
2018-01-15T10:41:54.119Z,24.00
2018-01-15T10:47:17.470Z,22.87
2018-01-15T10:49:55.042Z,19.65
2018-01-15T10:52:32.674Z,18.37
2018-01-15T10:57:52.872Z,18.45
2018-01-15T11:00:40.201Z,26.25
2018-01-15T11:03:08.457Z,17.20
2018-01-15T11:05:49.362Z,21.30
2018-01-15T11:14:35.351Z,22.10
2018-01-15T11:17:12.196Z,17.17
2018-01-15T11:19:41.552Z,22.62
2018-01-15T11:22:14.202Z,18.67
2018-01-15T11:24:49.025Z,18.05
2018-01-15T11:29:51.448Z,19.73
2018-01-15T11:32:23.088Z,16.55
2018-01-15T11:34:57.172Z,22.27
2018-01-15T11:40:17.871Z,21.08
2018-01-15T11:42:45.326Z,20.23
2018-01-15T11:45:17.642Z,20.77
2018-01-15T11:55:11.078Z,22.60
2018-01-15T11:57:43.991Z,16.83
2018-01-15T12:00:12.094Z,17.15
2018-01-15T12:23:53.691Z,16.02
2018-01-15T12:26:25.492Z,16.48
2018-01-15T12:28:54.754Z,18.45
2018-01-15T12:31:26.066Z,16.52
2018-01-15T12:33:54.518Z,19.17
2018-01-15T12:39:35.575Z,14.98
2018-01-15T12:42:03.805Z,16.15
2018-01-15T12:44:36.927Z,17.80
2018-01-15T12:47:05.307Z,15.05
2018-01-15T12:49:35.164Z,19.73
2018-01-15T12:52:10.817Z,16.87
2018-01-15T12:54:49.803Z,20.33
2018-01-15T12:59:51.289Z,14.45
2018-01-15T13:02:36.843Z,17.83
2018-01-15T13:05:05.483Z,12.35
2018-01-15T13:07:48.792Z,23.33
2018-01-15T13:10:16.679Z,19.48
2018-01-15T13:12:45.227Z,17.27
2018-01-15T13:15:13.942Z,16.65
2018-01-15T13:17:42.303Z,15.63
2018-01-15T13:20:11.311Z,18.75
2018-01-15T13:22:39.994Z,14.60
2018-01-15T13:25:09.936Z,13.95
2018-01-15T13:27:37.775Z,10.13
2018-01-15T13:30:08.518Z,14.65
2018-01-15T13:32:41.407Z,14.55
2018-01-15T13:35:12.532Z,13.23
2018-01-15T13:37:42.756Z,15.40
2018-01-15T13:40:14.446Z,13.00
2018-01-15T13:42:45.957Z,14.45
2018-01-15T13:45:16.986Z,12.02
2018-01-15T13:47:46.918Z,14.13
2018-01-15T13:50:15.965Z,15.27
2018-01-15T13:52:45.540Z,12.95
2018-01-15T13:55:17.470Z,15.02
2018-01-15T13:57:48.775Z,16.17
2018-01-15T14:03:09.006Z,11.93
2018-01-15T14:05:36.462Z,14.82
2018-01-15T14:08:09.991Z,14.23
2018-01-15T14:10:44.606Z,18.50
2018-01-15T14:13:21.597Z,11.70
2018-01-15T14:15:50.792Z,17.55
2018-01-15T14:18:18.827Z,14.85
2018-01-15T14:20:51.567Z,12.93
2018-01-15T14:23:19.442Z,11.52
2018-01-15T14:25:47.798Z,15.60
2018-01-15T14:28:15.791Z,12.90
2018-01-15T14:30:48.985Z,11.52
2018-01-15T14:33:19.014Z,12.70
2018-01-15T14:35:50.296Z,19.40
2018-01-15T14:38:17.713Z,9.35
2018-01-15T14:40:47.511Z,14.32
2018-01-15T14:43:16.495Z,9.02
2018-01-15T14:45:43.954Z,7.75
2018-01-15T14:48:13.225Z,10.85
2018-01-15T14:50:42.150Z,10.68
2018-01-15T14:53:11.728Z,10.73
2018-01-15T14:55:39.168Z,10.95
2018-01-15T14:58:13.643Z,7.25
2018-01-15T15:00:42.430Z,13.73
2018-01-15T15:03:10.503Z,11.10
2018-01-15T15:05:37.974Z,8.63
2018-01-15T15:08:06.194Z,6.82
2018-01-15T15:10:35.435Z,11.63
2018-01-15T15:13:05.343Z,8.00
2018-01-15T15:15:34.185Z,8.10
2018-01-15T15:18:02.062Z,9.57
2018-01-15T15:20:30.174Z,10.27
2018-01-15T15:22:58.308Z,8.82
2018-01-15T15:25:27.880Z,10.40
2018-01-15T15:27:55.819Z,10.30
2018-01-15T15:30:23.270Z,8.63
2018-01-15T15:32:51.072Z,9.05
2018-01-15T15:35:19.310Z,10.20
2018-01-15T15:37:48.062Z,8.73
2018-01-15T15:40:19.550Z,10.95
2018-01-15T16:16:01.672Z,17.95
2018-01-15T16:18:43.733Z,10.85
2018-01-15T16:30:32.294Z,11.90
2018-01-15T16:33:01.861Z,10.07
2018-01-15T16:35:31.503Z,12.23
2018-01-15T16:38:05.572Z,13.65
2018-01-15T16:40:33.822Z,15.13
2018-01-15T16:43:14.074Z,14.82
2018-01-15T16:45:47.467Z,11.80
2018-01-15T16:48:28.778Z,14.63
2018-01-15T16:50:58.590Z,14.40
2018-01-15T16:53:49.231Z,10.70
2018-01-15T16:56:43.649Z,15.32
2018-01-15T17:02:11.499Z,11.02
2018-01-15T17:04:59.176Z,13.80
2018-01-15T17:10:24.646Z,16.87
2018-01-15T17:12:54.978Z,9.10
2018-01-15T17:15:23.400Z,14.02
2018-01-15T17:23:40.439Z,10.13
2018-01-15T17:26:24.163Z,11.75
2018-01-15T17:28:57.370Z,9.50
2018-01-15T17:31:25.353Z,9.68
2018-01-15T17:36:27.434Z,11.38
2018-01-15T17:38:55.612Z,11.43
2018-01-15T17:41:25.682Z,12.05
2018-01-15T17:43:59.149Z,10.45
2018-01-15T17:46:39.079Z,10.63
2018-01-15T17:49:14.010Z,12.05
2018-01-15T17:51:57.030Z,8.65
2018-01-15T17:54:31.248Z,12.23
2018-01-15T17:57:02.895Z,11.95
2018-01-15T17:59:40.902Z,10.63
2018-01-15T18:02:13.173Z,12.45
2018-01-15T18:04:40.601Z,15.85
2018-01-15T18:07:08.858Z,9.88
2018-01-15T18:09:38.282Z,11.50
2018-01-15T18:12:06.872Z,7.90
2018-01-15T18:14:39.091Z,13.38
2018-01-15T18:17:12.187Z,10.98
2018-01-15T18:19:40.679Z,11.07
2018-01-15T18:22:12.491Z,11.02
2018-01-15T18:24:43.419Z,11.60
2018-01-15T18:27:11.535Z,12.55
2018-01-15T18:29:43.629Z,9.80
2018-01-15T18:32:18.372Z,12.05
2018-01-15T18:34:51.572Z,19.60
2018-01-15T18:37:19.619Z,11.02
2018-01-15T18:39:52.996Z,10.32
2018-01-15T18:49:25.259Z,8.55
2018-01-15T18:51:56.556Z,9.40
2018-01-15T18:54:31.981Z,13.90
2018-01-15T19:02:50.624Z,10.00
2018-01-15T19:11:06.867Z,9.20
2018-01-15T19:13:55.495Z,5.28
2018-01-15T19:16:23.260Z,18.67
2018-01-15T19:26:26.085Z,7.18
2018-01-15T19:28:53.770Z,8.43
2018-01-15T19:31:49.819Z,9.38
2018-01-15T19:37:10.753Z,8.18
